Time;durP1;ratioP1;P1;durP2;ratioP2;P2;SDS_P1;SDS_P2;PMS_P1;PMS_P2;Temp;Humidity;BMP_temperature;BMP_pressure;BME280_temperature;BME280_humidity;BME280_pressure;Samples;Min_cycle;Max_cycle;Signal;HPM_P1;HPM_P2
2021/09/13 00:01:45;;;;;;;;;;;15.70;99.90;;;;;;5077287;28;20395;-87
2021/09/13 00:04:11;;;;;;;;;;;15.70;99.90;;;;;;5076942;28;20378;-86
2021/09/13 00:06:37;;;;;;;;;;;15.60;99.90;;;;;;5108340;28;19959;-86
2021/09/13 00:09:02;;;;;;;;;;;15.60;99.90;;;;;;5094801;28;19969;-86
2021/09/13 00:11:28;;;;;;;;;;;15.60;99.90;;;;;;5090008;28;19946;-86
2021/09/13 00:13:54;;;;;;;;;;;15.60;99.90;;;;;;5118637;27;19970;-86
2021/09/13 00:16:19;;;;;;;;;;;15.60;99.90;;;;;;5088948;28;20306;-86
2021/09/13 00:18:45;;;;;;;;;;;15.50;99.90;;;;;;5076517;28;19927;-86
2021/09/13 00:21:10;;;;;;;;;;;15.50;99.90;;;;;;5090982;28;19945;-86
2021/09/13 00:23:36;;;;;;;;;;;15.50;99.90;;;;;;5102006;28;20383;-86
2021/09/13 00:26:01;;;;;;;;;;;15.50;99.90;;;;;;5086606;28;19963;-87
2021/09/13 00:28:27;;;;;;;;;;;15.50;99.90;;;;;;5108170;28;19939;-87
2021/09/13 00:30:53;;;;;;;;;;;15.50;99.90;;;;;;5112881;27;19916;-86
2021/09/13 00:33:18;;;;;;;;;;;15.50;99.90;;;;;;5070873;28;19924;-87
2021/09/13 00:35:44;;;;;;;;;;;15.60;99.90;;;;;;5113393;27;19916;-86
2021/09/13 00:38:09;;;;;;;;;;;15.60;99.90;;;;;;5072686;28;20371;-86
2021/09/13 00:40:35;;;;;;;;;;;15.50;99.90;;;;;;5063201;28;20031;-86
2021/09/13 00:43:04;;;;;;;;;;;15.60;99.90;;;;;;5104749;28;19931;-86
2021/09/13 00:45:29;;;;;;;;;;;15.60;99.90;;;;;;5111042;27;19920;-86
2021/09/13 00:47:55;;;;;;;;;;;15.60;99.90;;;;;;5092902;28;19935;-86
2021/09/13 00:50:21;;;;;;;;;;;15.60;99.90;;;;;;5121551;27;19931;-87
2021/09/13 00:52:51;;;;;;;;;;;15.60;99.90;;;;;;5109842;28;19923;-87
2021/09/13 00:55:17;;;;;;;;;;;15.60;99.90;;;;;;5080830;28;19987;-87
2021/09/13 00:57:42;;;;;;;;;;;15.60;99.90;;;;;;5093555;27;20009;-87
2021/09/13 01:00:09;;;;;;;;;;;15.60;99.90;;;;;;5109707;27;19923;-87
2021/09/13 01:02:35;;;;;;;;;;;15.60;99.90;;;;;;5091571;28;19930;-86
2021/09/13 01:05:01;;;;;;;;;;;15.60;99.90;;;;;;5108211;27;20330;-87
2021/09/13 01:07:26;;;;;;;;;;;15.60;99.90;;;;;;5108831;27;19931;-87
2021/09/13 01:09:52;;;;;;;;;;;15.60;99.90;;;;;;5108214;28;19927;-87
2021/09/13 01:12:18;;;;;;;;;;;15.60;99.90;;;;;;5124839;27;20350;-87
2021/09/13 01:14:43;;;;;;;;;;;15.60;99.90;;;;;;5116253;27;20007;-87
2021/09/13 01:17:09;;;;;;;;;;;15.60;99.90;;;;;;5105797;28;20314;-87
2021/09/13 01:19:35;;;;;;;;;;;15.60;99.90;;;;;;5107234;27;19927;-87
2021/09/13 01:22:01;;;;;;;;;;;15.60;99.90;;;;;;5104018;27;19930;-86
2021/09/13 01:24:31;;;;;;;;;;;15.60;99.90;;;;;;5127699;27;19951;-87
2021/09/13 01:26:58;;;;;;;;;;;15.60;99.90;;;;;;5097266;27;20462;-86
2021/09/13 01:29:27;;;;;;;;;;;15.60;99.90;;;;;;5093058;28;20455;-87
2021/09/13 01:31:52;;;;;;;;;;;15.60;99.90;;;;;;5086608;28;20372;-87
2021/09/13 01:34:18;;;;;;;;;;;15.60;99.90;;;;;;5094613;28;19927;-87
2021/09/13 01:36:44;;;;;;;;;;;15.60;99.90;;;;;;5073979;28;19924;-87
2021/09/13 01:39:09;;;;;;;;;;;15.60;99.90;;;;;;5092722;28;20382;-86
2021/09/13 01:41:35;;;;;;;;;;;15.60;99.90;;;;;;5101624;28;20015;-87
2021/09/13 01:44:01;;;;;;;;;;;15.60;99.90;;;;;;5090996;28;19932;-87
2021/09/13 01:46:26;;;;;;;;;;;15.60;99.90;;;;;;5083374;28;20050;-86
2021/09/13 01:48:52;;;;;;;;;;;15.60;99.90;;;;;;5086396;28;19928;-86
2021/09/13 01:51:17;;;;;;;;;;;15.50;99.90;;;;;;5136017;27;20000;-87
2021/09/13 01:53:43;;;;;;;;;;;15.50;99.90;;;;;;5058286;28;19924;-86
2021/09/13 01:56:08;;;;;;;;;;;15.50;99.90;;;;;;5089494;28;19931;-86
2021/09/13 01:58:34;;;;;;;;;;;15.50;99.90;;;;;;5087021;28;19973;-86
2021/09/13 02:01:00;;;;;;;;;;;15.50;99.90;;;;;;5103514;28;20276;-87
2021/09/13 02:03:25;;;;;;;;;;;15.50;99.90;;;;;;5087898;28;19997;-87
2021/09/13 02:05:51;;;;;;;;;;;15.40;99.90;;;;;;5103765;28;19928;-87
2021/09/13 02:08:16;;;;;;;;;;;15.50;99.90;;;;;;5110584;27;19928;-87
2021/09/13 02:10:42;;;;;;;;;;;15.50;99.90;;;;;;5116908;27;19924;-87
2021/09/13 02:13:07;;;;;;;;;;;15.50;99.90;;;;;;5134515;27;19924;-86
2021/09/13 02:15:33;;;;;;;;;;;15.50;99.90;;;;;;5072550;28;19931;-86
2021/09/13 02:17:58;;;;;;;;;;;15.50;99.90;;;;;;5078067;28;20088;-87
2021/09/13 02:20:24;;;;;;;;;;;15.50;99.90;;;;;;5104200;28;20010;-86
2021/09/13 02:22:50;;;;;;;;;;;15.50;99.90;;;;;;5088795;28;19927;-86
2021/09/13 02:25:15;;;;;;;;;;;15.50;99.90;;;;;;5066785;28;19924;-87
2021/09/13 02:27:41;;;;;;;;;;;15.40;99.90;;;;;;5086578;28;19928;-87
2021/09/13 02:30:07;;;;;;;;;;;15.40;99.90;;;;;;5094920;28;19924;-87
2021/09/13 02:32:32;;;;;;;;;;;15.40;99.90;;;;;;5121727;28;19928;-87
2021/09/13 02:35:04;;;;;;;;;;;15.40;99.90;;;;;;5068004;28;19920;-87
2021/09/13 02:37:30;;;;;;;;;;;15.30;99.90;;;;;;5074321;28;20347;-86
2021/09/13 02:39:55;;;;;;;;;;;15.30;99.90;;;;;;5074675;28;19963;-87
2021/09/13 02:42:21;;;;;;;;;;;15.30;99.90;;;;;;5103227;28;19934;-87
2021/09/13 02:44:46;;;;;;;;;;;15.30;99.90;;;;;;5133742;27;19924;-87
2021/09/13 02:47:12;;;;;;;;;;;15.30;99.90;;;;;;5087537;28;19928;-87
2021/09/13 02:49:37;;;;;;;;;;;15.30;99.90;;;;;;5051221;28;19946;-87
2021/09/13 02:52:03;;;;;;;;;;;15.20;99.90;;;;;;5107764;28;19919;-87
2021/09/13 02:54:28;;;;;;;;;;;15.20;99.90;;;;;;5070549;28;19923;-87
2021/09/13 02:56:54;;;;;;;;;;;15.20;99.90;;;;;;5093500;28;19971;-87
2021/09/13 02:59:20;;;;;;;;;;;15.20;99.90;;;;;;5070782;28;20022;-87
2021/09/13 03:01:45;;;;;;;;;;;15.20;99.90;;;;;;5077310;28;19924;-87
2021/09/13 03:04:11;;;;;;;;;;;15.10;99.90;;;;;;5139572;27;20304;-86
2021/09/13 03:06:36;;;;;;;;;;;15.10;99.90;;;;;;5079414;28;20066;-86
2021/09/13 03:09:02;;;;;;;;;;;15.10;99.90;;;;;;5115147;27;19931;-86
2021/09/13 03:11:27;;;;;;;;;;;15.10;99.90;;;;;;5070227;28;20353;-87
2021/09/13 03:13:54;;;;;;;;;;;15.10;99.90;;;;;;5089345;28;20025;-87
2021/09/13 03:16:19;;;;;;;;;;;15.20;99.90;;;;;;5118670;27;19928;-87
2021/09/13 03:18:45;;;;;;;;;;;15.10;99.90;;;;;;5073523;28;20409;-87
2021/09/13 03:21:10;;;;;;;;;;;15.10;99.90;;;;;;5137378;27;19923;-87
2021/09/13 03:23:36;;;;;;;;;;;15.10;99.90;;;;;;5092647;28;19923;-86
2021/09/13 03:26:01;;;;;;;;;;;15.10;99.90;;;;;;5141157;27;19965;-87
2021/09/13 03:28:27;;;;;;;;;;;15.10;99.90;;;;;;5139019;27;19930;-86
2021/09/13 03:30:53;;;;;;;;;;;15.10;99.90;;;;;;5075025;28;19923;-86
2021/09/13 03:33:18;;;;;;;;;;;15.10;99.90;;;;;;5124324;27;19920;-86
2021/09/13 03:35:44;;;;;;;;;;;15.00;99.90;;;;;;5074302;28;20022;-87
2021/09/13 03:38:09;;;;;;;;;;;15.00;99.90;;;;;;5107337;28;19924;-86
2021/09/13 03:40:35;;;;;;;;;;;15.00;99.90;;;;;;5098014;28;19919;-86
2021/09/13 03:43:01;;;;;;;;;;;15.00;99.90;;;;;;5097380;28;19931;-86
2021/09/13 03:45:26;;;;;;;;;;;14.90;99.90;;;;;;5088907;28;20359;-87
2021/09/13 03:47:52;;;;;;;;;;;14.90;99.90;;;;;;5113516;27;20357;-87
2021/09/13 03:50:17;;;;;;;;;;;14.90;99.90;;;;;;5094085;28;20352;-87
2021/09/13 03:52:43;;;;;;;;;;;14.80;99.90;;;;;;5097867;28;19928;-87
2021/09/13 03:55:09;;;;;;;;;;;14.80;99.90;;;;;;5139663;27;19924;-86
2021/09/13 03:57:34;;;;;;;;;;;14.70;99.90;;;;;;5097580;28;19920;-86
2021/09/13 04:00:00;;;;;;;;;;;14.70;99.90;;;;;;5102451;28;19931;-86
2021/09/13 04:02:27;;;;;;;;;;;14.60;99.90;;;;;;5084439;28;19924;-86
2021/09/13 04:04:52;;;;;;;;;;;14.60;99.90;;;;;;5087793;28;20261;-86
2021/09/13 04:07:26;;;;;;;;;;;14.60;99.90;;;;;;5090665;28;19935;-87
2021/09/13 04:10:00;;;;;;;;;;;14.50;99.90;;;;;;5100958;28;19931;-86
2021/09/13 04:12:26;;;;;;;;;;;14.50;99.90;;;;;;5097864;28;19927;-86
2021/09/13 04:14:51;;;;;;;;;;;14.50;99.90;;;;;;5088415;28;19924;-87
2021/09/13 04:17:17;;;;;;;;;;;14.40;99.90;;;;;;5091106;28;20002;-86
2021/09/13 04:19:42;;;;;;;;;;;14.40;99.90;;;;;;5090700;28;19927;-87
2021/09/13 04:22:08;;;;;;;;;;;14.40;99.90;;;;;;5079824;28;20011;-87
2021/09/13 04:24:34;;;;;;;;;;;14.30;99.90;;;;;;5138806;27;20033;-87
2021/09/13 04:27:00;;;;;;;;;;;14.30;99.90;;;;;;5092912;28;19993;-86
2021/09/13 04:29:25;;;;;;;;;;;14.30;99.90;;;;;;5090762;28;20366;-86
2021/09/13 04:31:51;;;;;;;;;;;14.30;99.90;;;;;;5067287;28;19923;-87
2021/09/13 04:34:16;;;;;;;;;;;14.30;99.90;;;;;;5070605;28;19931;-86
2021/09/13 04:36:42;;;;;;;;;;;14.20;99.90;;;;;;5089845;28;19920;-86
2021/09/13 04:39:07;;;;;;;;;;;14.20;99.90;;;;;;5089985;28;19949;-87
2021/09/13 04:41:33;;;;;;;;;;;14.20;99.90;;;;;;5109491;27;19931;-87
2021/09/13 04:43:59;;;;;;;;;;;14.20;99.90;;;;;;5101106;28;19931;-86
2021/09/13 04:46:24;;;;;;;;;;;14.20;99.90;;;;;;5089142;28;19949;-87
2021/09/13 04:48:50;;;;;;;;;;;14.20;99.90;;;;;;5100655;28;19927;-87
2021/09/13 04:51:16;;;;;;;;;;;14.10;99.90;;;;;;5068147;28;20466;-87
2021/09/13 04:53:42;;;;;;;;;;;14.10;99.90;;;;;;5079587;28;20022;-87
2021/09/13 04:56:07;;;;;;;;;;;14.10;99.90;;;;;;5070318;28;20059;-87
2021/09/13 04:58:33;;;;;;;;;;;14.10;99.90;;;;;;5097359;28;20015;-88
2021/09/13 05:00:58;;;;;;;;;;;14.00;99.90;;;;;;5092548;28;20291;-87
2021/09/13 05:03:24;;;;;;;;;;;14.00;99.90;;;;;;5113930;27;19920;-87
2021/09/13 05:05:50;;;;;;;;;;;13.90;99.90;;;;;;5089099;28;19919;-86
2021/09/13 05:08:15;;;;;;;;;;;13.90;99.90;;;;;;5075928;28;19924;-86
2021/09/13 05:10:41;;;;;;;;;;;13.90;99.90;;;;;;5108175;28;20321;-87
2021/09/13 05:13:07;;;;;;;;;;;13.90;99.90;;;;;;5109285;28;19923;-87
2021/09/13 05:15:32;;;;;;;;;;;13.80;99.90;;;;;;5109760;28;19919;-87
2021/09/13 05:17:58;;;;;;;;;;;13.80;99.90;;;;;;5088986;28;19927;-87
2021/09/13 05:20:23;;;;;;;;;;;13.80;99.90;;;;;;5113469;27;19920;-89
2021/09/13 05:22:49;;;;;;;;;;;13.90;99.90;;;;;;5097281;28;19924;-87
2021/09/13 05:25:15;;;;;;;;;;;13.80;99.90;;;;;;5124927;27;19920;-88
2021/09/13 05:27:40;;;;;;;;;;;13.80;99.90;;;;;;5117238;27;20007;-88
2021/09/13 05:30:07;;;;;;;;;;;13.80;99.90;;;;;;5090689;28;20386;-87
2021/09/13 05:32:32;;;;;;;;;;;13.80;99.90;;;;;;5090858;28;20290;-90
2021/09/13 05:34:58;;;;;;;;;;;13.80;99.90;;;;;;5106956;28;20006;-87
2021/09/13 05:37:23;;;;;;;;;;;13.80;99.90;;;;;;5073220;28;19924;-87
2021/09/13 05:39:49;;;;;;;;;;;13.80;99.90;;;;;;5072303;28;19926;-86
2021/09/13 05:42:14;;;;;;;;;;;13.90;99.90;;;;;;5096720;28;19920;-87
2021/09/13 05:44:41;;;;;;;;;;;13.90;99.90;;;;;;5088383;28;19920;-87
2021/09/13 05:47:07;;;;;;;;;;;14.00;99.90;;;;;;5086987;28;19928;-86
2021/09/13 05:49:32;;;;;;;;;;;14.00;99.90;;;;;;5092541;28;19930;-86
2021/09/13 05:51:58;;;;;;;;;;;14.10;99.90;;;;;;5074942;28;19924;-87
2021/09/13 05:54:26;;;;;;;;;;;14.10;99.90;;;;;;5073499;28;19931;-86
2021/09/13 05:56:53;;;;;;;;;;;14.20;99.90;;;;;;5072929;28;20015;-87
2021/09/13 05:59:20;;;;;;;;;;;14.30;99.90;;;;;;5087548;28;19966;-87
2021/09/13 06:01:45;;;;;;;;;;;14.40;99.90;;;;;;5089960;28;19920;-87
2021/09/13 06:04:11;;;;;;;;;;;14.40;99.90;;;;;;5108097;28;19924;-87
2021/09/13 06:06:37;;;;;;;;;;;14.50;99.90;;;;;;5070611;28;20019;-87
2021/09/13 06:09:02;;;;;;;;;;;14.50;99.90;;;;;;5120497;27;19924;-87
2021/09/13 06:11:28;;;;;;;;;;;14.60;99.90;;;;;;5104338;28;20771;-87
2021/09/13 06:13:54;;;;;;;;;;;14.70;99.90;;;;;;5088166;28;19972;-87
2021/09/13 06:16:19;;;;;;;;;;;14.80;99.90;;;;;;5102921;28;19931;-87
2021/09/13 06:18:45;;;;;;;;;;;14.80;99.90;;;;;;5105003;28;20011;-87
2021/09/13 06:21:11;;;;;;;;;;;14.90;99.90;;;;;;5104338;28;19920;-87
2021/09/13 06:23:36;;;;;;;;;;;14.90;99.90;;;;;;5106541;28;19924;-87
2021/09/13 06:26:02;;;;;;;;;;;15.00;99.90;;;;;;5067919;28;19927;-87
2021/09/13 06:28:28;;;;;;;;;;;15.00;99.90;;;;;;5090979;28;20019;-87
2021/09/13 06:30:54;;;;;;;;;;;15.10;99.90;;;;;;5089125;28;20007;-87
2021/09/13 06:33:19;;;;;;;;;;;15.20;99.90;;;;;;5125346;28;19965;-87
2021/09/13 06:35:45;;;;;;;;;;;15.20;99.90;;;;;;5100461;28;20018;-88
2021/09/13 06:38:10;;;;;;;;;;;15.30;99.90;;;;;;5107432;28;20403;-88
2021/09/13 06:40:36;;;;;;;;;;;15.30;99.90;;;;;;5087141;28;19931;-88
2021/09/13 06:43:02;;;;;;;;;;;15.40;99.90;;;;;;5112659;28;19923;-88
2021/09/13 06:45:27;;;;;;;;;;;15.50;99.90;;;;;;5110967;28;19919;-87
2021/09/13 06:47:53;;;;;;;;;;;15.60;99.90;;;;;;5111980;28;20718;-87
2021/09/13 06:50:26;;;;;;;;;;;15.60;99.90;;;;;;5111797;27;19919;-87
2021/09/13 06:52:53;;;;;;;;;;;15.70;99.90;;;;;;5093791;28;20026;-87
2021/09/13 06:55:19;;;;;;;;;;;15.70;99.90;;;;;;5116787;27;20023;-87
2021/09/13 06:57:45;;;;;;;;;;;15.70;99.90;;;;;;5117138;27;20418;-87
2021/09/13 07:00:12;;;;;;;;;;;15.80;99.90;;;;;;5107631;28;20014;-87
2021/09/13 07:02:38;;;;;;;;;;;15.80;99.90;;;;;;5092546;28;19927;-86
2021/09/13 07:05:04;;;;;;;;;;;15.80;99.90;;;;;;5094403;28;19919;-91
2021/09/13 07:07:30;;;;;;;;;;;15.80;99.90;;;;;;5123311;27;19924;-93
2021/09/13 07:09:56;;;;;;;;;;;15.90;99.90;;;;;;5122603;27;20405;-92
2021/09/13 07:12:21;;;;;;;;;;;15.80;99.90;;;;;;5079488;28;20435;-91
2021/09/13 07:14:47;;;;;;;;;;;15.90;99.90;;;;;;5077853;28;19974;-90
2021/09/13 07:17:13;;;;;;;;;;;15.90;99.90;;;;;;5114585;27;19924;-90
2021/09/13 07:19:39;;;;;;;;;;;15.90;99.90;;;;;;5103523;28;19923;-91
2021/09/13 07:22:05;;;;;;;;;;;16.00;99.90;;;;;;5116352;27;19920;-87
2021/09/13 07:24:30;;;;;;;;;;;16.00;99.90;;;;;;5109163;27;19932;-88
2021/09/13 07:26:56;;;;;;;;;;;16.00;99.90;;;;;;5087756;28;20010;-88
2021/09/13 07:29:22;;;;;;;;;;;16.10;99.90;;;;;;5093288;28;19924;-88
2021/09/13 07:31:47;;;;;;;;;;;16.10;99.90;;;;;;5086130;28;19924;-88
2021/09/13 07:34:13;;;;;;;;;;;16.20;99.90;;;;;;5104159;28;20268;-88
2021/09/13 07:36:38;;;;;;;;;;;16.20;99.90;;;;;;5078166;28;20323;-87
2021/09/13 07:39:05;;;;;;;;;;;16.20;99.90;;;;;;5109314;27;19919;-87
2021/09/13 07:41:30;;;;;;;;;;;16.30;99.90;;;;;;5082183;28;19970;-87
2021/09/13 07:43:56;;;;;;;;;;;16.30;99.90;;;;;;5096504;28;20787;-88
2021/09/13 07:46:22;;;;;;;;;;;16.40;99.90;;;;;;5065818;28;19972;-87
2021/09/13 07:48:47;;;;;;;;;;;16.40;99.90;;;;;;5095208;28;19923;-88
2021/09/13 07:51:13;;;;;;;;;;;16.40;99.90;;;;;;5079827;28;20112;-89
2021/09/13 07:53:38;;;;;;;;;;;16.40;99.90;;;;;;5093153;28;20298;-88
2021/09/13 07:56:04;;;;;;;;;;;16.40;99.90;;;;;;5091194;28;19974;-87
2021/09/13 07:58:30;;;;;;;;;;;16.50;99.90;;;;;;5103602;28;19919;-87
2021/09/13 08:00:55;;;;;;;;;;;16.50;99.90;;;;;;5084859;28;19924;-87
2021/09/13 08:03:24;;;;;;;;;;;16.50;99.90;;;;;;5085148;28;19927;-90
2021/09/13 08:05:49;;;;;;;;;;;16.50;99.90;;;;;;5088046;28;19924;-88
2021/09/13 08:08:15;;;;;;;;;;;16.50;99.90;;;;;;5065693;28;20008;-88
2021/09/13 08:10:40;;;;;;;;;;;16.50;99.90;;;;;;5116576;27;19920;-88
2021/09/13 08:13:06;;;;;;;;;;;16.50;99.90;;;;;;5100654;28;19924;-88
2021/09/13 08:15:32;;;;;;;;;;;16.50;99.90;;;;;;5095942;28;20299;-88
2021/09/13 08:17:58;;;;;;;;;;;16.50;99.90;;;;;;5084240;28;20014;-86
2021/09/13 08:20:23;;;;;;;;;;;16.40;99.90;;;;;;5067967;28;19919;-87
2021/09/13 08:22:49;;;;;;;;;;;16.40;99.90;;;;;;5101359;28;20332;-87
2021/09/13 08:25:15;;;;;;;;;;;16.40;99.90;;;;;;5112127;27;19924;-87
2021/09/13 08:27:40;;;;;;;;;;;16.40;99.90;;;;;;5094767;27;19973;-88
2021/09/13 08:30:06;;;;;;;;;;;16.40;99.90;;;;;;5086686;28;20294;-90
2021/09/13 08:32:32;;;;;;;;;;;16.40;99.90;;;;;;5084327;28;19931;-89
2021/09/13 08:34:57;;;;;;;;;;;16.40;99.90;;;;;;5100863;28;19923;-89
2021/09/13 08:37:24;;;;;;;;;;;16.50;99.90;;;;;;5082522;28;19924;-89
2021/09/13 08:39:50;;;;;;;;;;;16.50;99.90;;;;;;5138448;27;20015;-88
2021/09/13 08:42:15;;;;;;;;;;;16.50;99.90;;;;;;5065768;28;19998;-87
2021/09/13 08:44:44;;;;;;;;;;;16.60;99.90;;;;;;5098634;28;19924;-87
2021/09/13 08:47:18;;;;;;;;;;;16.60;99.90;;;;;;5064472;28;20370;-86
2021/09/13 08:49:45;;;;;;;;;;;16.60;99.90;;;;;;5093598;28;20063;-87
2021/09/13 08:52:10;;;;;;;;;;;16.70;99.90;;;;;;5072344;28;19925;-87
2021/09/13 08:54:38;;;;;;;;;;;16.70;99.90;;;;;;5073006;28;19979;-87
2021/09/13 08:57:06;;;;;;;;;;;16.80;99.90;;;;;;5098612;28;19927;-86
2021/09/13 08:59:33;;;;;;;;;;;16.80;99.90;;;;;;5098122;28;20014;-86
2021/09/13 09:01:59;;;;;;;;;;;16.80;99.90;;;;;;5096926;28;19924;-86
2021/09/13 09:04:25;;;;;;;;;;;16.90;99.90;;;;;;5082746;28;19932;-87
2021/09/13 09:06:51;;;;;;;;;;;16.90;99.90;;;;;;5082706;28;19931;-86
2021/09/13 09:09:19;;;;;;;;;;;17.00;99.90;;;;;;5072735;28;20410;-86
2021/09/13 09:11:50;;;;;;;;;;;17.00;99.90;;;;;;5092690;28;19924;-86
2021/09/13 09:14:35;;;;;;;;;;;17.10;99.90;;;;;;5071997;28;19931;-86
2021/09/13 09:17:02;;;;;;;;;;;17.10;99.90;;;;;;5108723;27;19931;-87
2021/09/13 09:19:28;;;;;;;;;;;17.10;99.90;;;;;;5094215;28;19923;-87
2021/09/13 09:21:54;;;;;;;;;;;17.00;99.90;;;;;;5072157;28;20450;-86
2021/09/13 09:24:20;;;;;;;;;;;17.00;99.90;;;;;;5081883;28;20073;-86
2021/09/13 09:27:02;;;;;;;;;;;17.00;99.90;;;;;;5138499;27;19971;-86
2021/09/13 09:29:28;;;;;;;;;;;17.00;99.90;;;;;;5099615;28;19924;-87
2021/09/13 09:31:58;;;;;;;;;;;17.10;99.90;;;;;;5107653;28;19923;-87
2021/09/13 09:34:25;;;;;;;;;;;17.10;99.90;;;;;;5108579;28;19923;-87
2021/09/13 09:37:00;;;;;;;;;;;17.10;99.90;;;;;;5107805;28;20385;-87
2021/09/13 09:39:34;;;;;;;;;;;17.20;99.90;;;;;;5125567;27;19926;-87
2021/09/13 09:42:01;;;;;;;;;;;17.20;99.90;;;;;;5125765;27;20338;-86
2021/09/13 09:44:26;;;;;;;;;;;17.20;99.90;;;;;;5106336;28;20294;-86
2021/09/13 09:46:53;;;;;;;;;;;17.20;99.90;;;;;;5108466;28;19928;-86
2021/09/13 09:49:22;;;;;;;;;;;17.20;99.90;;;;;;5125717;27;19920;-87
2021/09/13 09:51:54;;;;;;;;;;;17.20;99.90;;;;;;5107031;28;19931;-86
2021/09/13 09:54:21;;;;;;;;;;;17.20;99.90;;;;;;5119327;27;20004;-86
2021/09/13 09:56:55;;;;;;;;;;;17.30;99.90;;;;;;5091453;28;19931;-87
2021/09/13 09:59:21;;;;;;;;;;;17.30;99.90;;;;;;5089158;28;19928;-86
2021/09/13 10:01:48;;;;;;;;;;;17.30;99.90;;;;;;5125683;27;19996;-87
2021/09/13 10:04:14;;;;;;;;;;;17.40;99.90;;;;;;5125011;27;19924;-87
2021/09/13 10:06:40;;;;;;;;;;;17.40;99.90;;;;;;5123944;27;19931;-87
2021/09/13 10:09:05;;;;;;;;;;;17.50;99.90;;;;;;5108010;28;19935;-87
2021/09/13 10:11:31;;;;;;;;;;;17.50;99.90;;;;;;5125023;27;19968;-87
2021/09/13 10:13:57;;;;;;;;;;;17.50;99.90;;;;;;5106240;28;19924;-87
2021/09/13 10:16:23;;;;;;;;;;;17.50;99.90;;;;;;5107626;28;20500;-87
2021/09/13 10:18:48;;;;;;;;;;;17.60;99.90;;;;;;5125383;27;19920;-87
2021/09/13 10:21:15;;;;;;;;;;;17.60;99.90;;;;;;5123795;27;19927;-87
2021/09/13 10:23:41;;;;;;;;;;;17.60;99.90;;;;;;5091388;28;20057;-86
2021/09/13 10:26:06;;;;;;;;;;;17.70;99.90;;;;;;5072237;28;20388;-87
2021/09/13 10:28:32;;;;;;;;;;;17.70;99.90;;;;;;5089388;28;19928;-87
2021/09/13 10:30:58;;;;;;;;;;;17.80;99.90;;;;;;5074427;28;20487;-87
2021/09/13 10:33:23;;;;;;;;;;;17.80;99.90;;;;;;5124995;28;20420;-87
2021/09/13 10:35:56;;;;;;;;;;;17.70;99.90;;;;;;5106775;28;19920;-87
2021/09/13 10:38:41;;;;;;;;;;;17.80;99.90;;;;;;5108380;28;19931;-87
2021/09/13 10:41:06;;;;;;;;;;;17.80;99.90;;;;;;5124317;27;19924;-86
2021/09/13 10:43:32;;;;;;;;;;;17.80;99.90;;;;;;5089724;28;20358;-86
2021/09/13 10:45:57;;;;;;;;;;;17.80;99.90;;;;;;5089911;28;20095;-87
2021/09/13 10:48:23;;;;;;;;;;;17.90;99.90;;;;;;5073564;28;19924;-87
2021/09/13 10:50:53;;;;;;;;;;;17.90;99.90;;;;;;5105429;28;19920;-87
2021/09/13 10:53:22;;;;;;;;;;;17.90;99.90;;;;;;5107029;28;19916;-87
2021/09/13 10:55:52;;;;;;;;;;;18.00;99.90;;;;;;5106683;28;20417;-87
2021/09/13 10:58:18;;;;;;;;;;;18.10;99.90;;;;;;5106540;28;20283;-87
2021/09/13 11:00:44;;;;;;;;;;;18.10;99.90;;;;;;5107656;28;20274;-87
2021/09/13 11:03:22;;;;;;;;;;;18.10;99.90;;;;;;5108213;28;19920;-87
2021/09/13 11:06:03;;;;;;;;;;;18.20;99.90;;;;;;5123236;27;20317;-87
2021/09/13 11:08:29;;;;;;;;;;;18.20;99.90;;;;;;5124803;27;19985;-87
2021/09/13 11:10:56;;;;;;;;;;;18.20;99.90;;;;;;5125120;28;20026;-87
2021/09/13 11:13:21;;;;;;;;;;;18.30;99.90;;;;;;5123388;27;19916;-86
2021/09/13 11:15:47;;;;;;;;;;;18.30;99.90;;;;;;5107950;28;20042;-87
2021/09/13 11:18:29;;;;;;;;;;;18.40;99.90;;;;;;5107444;28;20044;-87
2021/09/13 11:20:57;;;;;;;;;;;18.40;99.90;;;;;;5123174;27;20286;-87
2021/09/13 11:23:33;;;;;;;;;;;18.40;99.90;;;;;;5127834;27;20390;-87
2021/09/13 11:25:58;;;;;;;;;;;18.50;99.90;;;;;;5094960;28;20274;-87
2021/09/13 11:28:24;;;;;;;;;;;18.50;99.90;;;;;;5126529;27;19928;-87
2021/09/13 11:30:49;;;;;;;;;;;18.50;99.90;;;;;;5111665;28;19931;-87
2021/09/13 11:33:15;;;;;;;;;;;18.60;99.90;;;;;;5128582;27;20290;-87
2021/09/13 11:35:41;;;;;;;;;;;18.60;99.90;;;;;;5127185;27;19923;-87
2021/09/13 11:38:06;;;;;;;;;;;18.60;99.90;;;;;;5127983;27;20023;-86
2021/09/13 11:40:32;;;;;;;;;;;18.50;99.90;;;;;;5111379;28;19924;-87
2021/09/13 11:43:07;;;;;;;;;;;18.50;99.90;;;;;;5106069;28;20041;-87
2021/09/13 11:45:32;;;;;;;;;;;18.60;99.90;;;;;;5107152;28;19924;-87
2021/09/13 11:48:05;;;;;;;;;;;18.50;99.90;;;;;;5090045;28;19928;-87
2021/09/13 11:50:30;;;;;;;;;;;18.60;99.90;;;;;;5088883;28;20019;-87
2021/09/13 11:52:56;;;;;;;;;;;18.60;99.90;;;;;;5126253;27;20434;-87
2021/09/13 11:55:23;;;;;;;;;;;18.60;99.90;;;;;;5093774;28;20000;-86
2021/09/13 11:57:58;;;;;;;;;;;18.70;99.90;;;;;;5125457;27;20386;-87
2021/09/13 12:00:27;;;;;;;;;;;18.70;99.90;;;;;;5082233;28;19920;-88
2021/09/13 12:02:55;;;;;;;;;;;18.60;99.90;;;;;;5083539;28;20394;-88
2021/09/13 12:05:26;;;;;;;;;;;18.70;99.90;;;;;;5081431;28;20394;-88
2021/09/13 12:07:53;;;;;;;;;;;18.70;99.90;;;;;;5107807;28;19991;-87
2021/09/13 12:10:19;;;;;;;;;;;18.80;99.90;;;;;;5072574;28;19927;-88
2021/09/13 12:12:48;;;;;;;;;;;18.80;99.90;;;;;;5075167;28;19931;-87
2021/09/13 12:15:14;;;;;;;;;;;18.80;99.90;;;;;;5119629;27;19919;-87
2021/09/13 12:17:42;;;;;;;;;;;18.80;99.90;;;;;;5108499;28;19920;-87
2021/09/13 12:20:16;;;;;;;;;;;18.80;99.90;;;;;;5099001;28;19987;-87
2021/09/13 12:22:42;;;;;;;;;;;18.80;99.90;;;;;;5079687;28;19920;-87
2021/09/13 12:25:10;;;;;;;;;;;18.90;99.90;;;;;;5081947;28;19924;-87
2021/09/13 12:27:46;;;;;;;;;;;18.90;99.90;;;;;;5124192;27;19924;-87
2021/09/13 12:30:16;;;;;;;;;;;18.90;99.90;;;;;;5089746;28;19924;-87
2021/09/13 12:32:48;;;;;;;;;;;18.90;99.90;;;;;;5074992;28;20003;-87
2021/09/13 12:35:14;;;;;;;;;;;19.00;99.90;;;;;;5097282;28;19927;-86
2021/09/13 12:37:40;;;;;;;;;;;19.00;99.90;;;;;;5087396;28;19924;-87
2021/09/13 12:40:11;;;;;;;;;;;19.00;99.90;;;;;;5094803;28;19963;-87
2021/09/13 12:42:57;;;;;;;;;;;19.00;99.90;;;;;;5096570;28;20456;-87
2021/09/13 12:45:27;;;;;;;;;;;19.00;99.90;;;;;;5094214;28;19924;-87
2021/09/13 12:47:57;;;;;;;;;;;18.90;99.90;;;;;;5101231;28;19928;-87
2021/09/13 12:50:29;;;;;;;;;;;19.00;99.90;;;;;;5079052;28;19945;-86
2021/09/13 12:52:55;;;;;;;;;;;19.00;99.90;;;;;;5137317;27;19920;-87
2021/09/13 12:55:22;;;;;;;;;;;19.00;99.90;;;;;;5078196;28;19927;-87
2021/09/13 12:57:49;;;;;;;;;;;19.10;99.90;;;;;;5069730;28;19973;-88
2021/09/13 13:00:15;;;;;;;;;;;19.00;99.90;;;;;;5136328;27;20019;-87
2021/09/13 13:02:43;;;;;;;;;;;19.10;99.90;;;;;;5121388;27;20042;-86
2021/09/13 13:05:27;;;;;;;;;;;19.10;99.90;;;;;;5082722;28;19920;-87
2021/09/13 13:07:53;;;;;;;;;;;19.10;99.90;;;;;;5136251;27;19928;-86
2021/09/13 13:10:20;;;;;;;;;;;19.20;99.90;;;;;;5071958;28;19919;-86
2021/09/13 13:12:46;;;;;;;;;;;19.20;99.90;;;;;;5076675;28;19919;-87
2021/09/13 13:15:13;;;;;;;;;;;19.20;99.90;;;;;;5106472;28;19923;-88
2021/09/13 13:17:39;;;;;;;;;;;19.20;99.90;;;;;;5069912;28;20036;-88
2021/09/13 13:20:05;;;;;;;;;;;19.20;99.90;;;;;;5102365;28;20390;-87
2021/09/13 13:22:30;;;;;;;;;;;19.20;99.90;;;;;;5086774;28;19922;-91
2021/09/13 13:24:56;;;;;;;;;;;19.20;99.90;;;;;;5092006;28;19923;-91
2021/09/13 13:27:21;;;;;;;;;;;19.10;99.90;;;;;;5092343;28;19973;-91
2021/09/13 13:29:48;;;;;;;;;;;19.10;99.90;;;;;;5075132;28;20471;-92
2021/09/13 13:32:14;;;;;;;;;;;19.00;99.90;;;;;;5074907;28;19972;-90
2021/09/13 13:34:40;;;;;;;;;;;19.00;99.90;;;;;;5091386;28;21326;-93
2021/09/13 13:37:05;;;;;;;;;;;18.90;99.90;;;;;;5076296;28;19920;-88
2021/09/13 13:39:31;;;;;;;;;;;18.90;99.90;;;;;;5109195;28;19926;-91
2021/09/13 13:41:57;;;;;;;;;;;18.80;99.90;;;;;;5089771;28;20302;-89
2021/09/13 13:44:22;;;;;;;;;;;18.80;99.90;;;;;;5124290;27;20027;-88
2021/09/13 13:46:48;;;;;;;;;;;18.70;99.90;;;;;;5092549;28;19928;-91
2021/09/13 13:49:13;;;;;;;;;;;18.70;99.90;;;;;;5089177;28;20293;-88
2021/09/13 13:51:39;;;;;;;;;;;18.70;99.90;;;;;;5088471;28;19924;-92
2021/09/13 13:54:05;;;;;;;;;;;18.70;99.90;;;;;;5091878;28;19920;-92
2021/09/13 13:56:32;;;;;;;;;;;18.70;99.90;;;;;;5073730;28;20275;-90
2021/09/13 13:58:57;;;;;;;;;;;18.60;99.90;;;;;;5108737;28;19973;-89
2021/09/13 14:01:23;;;;;;;;;;;18.60;99.90;;;;;;5107038;28;19928;-90
2021/09/13 14:03:48;;;;;;;;;;;18.60;99.90;;;;;;5074361;28;19920;-95
2021/09/13 14:06:14;;;;;;;;;;;18.60;99.90;;;;;;5091745;28;19920;-88
2021/09/13 14:08:40;;;;;;;;;;;18.60;99.90;;;;;;5091179;28;19969;-88
2021/09/13 14:11:05;;;;;;;;;;;18.60;99.90;;;;;;5107153;28;19989;-89
2021/09/13 14:13:31;;;;;;;;;;;18.60;99.90;;;;;;5106200;28;19955;-87